sensor_id;sensor_type;location;lat;lon;timestamp;pressure;altitude;pressure_sealevel;temperature;humidity
55934;BME280;41839;41.386;2.082;2022-08-03T00:03:17;99681.72;;;30.29;47.88
55934;BME280;41839;41.386;2.082;2022-08-03T00:05:42;99678.38;;;30.24;47.52
55934;BME280;41839;41.386;2.082;2022-08-03T00:09:52;99676.88;;;30.17;48.15
55934;BME280;41839;41.386;2.082;2022-08-03T00:12:18;99656.16;;;30.03;48.06
55934;BME280;41839;41.386;2.082;2022-08-03T00:14:43;99670.84;;;30.12;48.19
55934;BME280;41839;41.386;2.082;2022-08-03T00:19:13;99674.13;;;30.18;46.82
55934;BME280;41839;41.386;2.082;2022-08-03T00:21:38;99664.38;;;30.19;47.66
55934;BME280;41839;41.386;2.082;2022-08-03T00:24:04;99664.38;;;30.20;46.68
55934;BME280;41839;41.386;2.082;2022-08-03T00:26:30;99657.34;;;30.18;47.83
55934;BME280;41839;41.386;2.082;2022-08-03T00:28:55;99645.25;;;30.10;45.78
55934;BME280;41839;41.386;2.082;2022-08-03T00:31:21;99653.97;;;30.14;47.50
55934;BME280;41839;41.386;2.082;2022-08-03T00:33:46;99654.94;;;30.12;47.24
55934;BME280;41839;41.386;2.082;2022-08-03T00:36:12;99649.56;;;30.13;46.17
55934;BME280;41839;41.386;2.082;2022-08-03T00:38:37;99647.84;;;30.12;47.62
55934;BME280;41839;41.386;2.082;2022-08-03T00:41:03;99624.50;;;29.98;44.64
55934;BME280;41839;41.386;2.082;2022-08-03T00:43:28;99629.16;;;30.15;44.99
55934;BME280;41839;41.386;2.082;2022-08-03T00:45:53;99634.56;;;30.12;47.57
55934;BME280;41839;41.386;2.082;2022-08-03T00:48:19;99627.91;;;30.02;45.34
55934;BME280;41839;41.386;2.082;2022-08-03T00:50:45;99631.09;;;30.10;47.28
55934;BME280;41839;41.386;2.082;2022-08-03T00:53:12;99627.53;;;30.11;45.38
55934;BME280;41839;41.386;2.082;2022-08-03T00:55:39;99593.81;;;29.91;46.51
55934;BME280;41839;41.386;2.082;2022-08-03T00:59:22;99622.41;;;30.06;45.67
55934;BME280;41839;41.386;2.082;2022-08-03T01:01:47;99622.59;;;30.02;44.39
55934;BME280;41839;41.386;2.082;2022-08-03T01:04:13;99623.84;;;29.92;44.29
55934;BME280;41839;41.386;2.082;2022-08-03T01:11:05;99615.53;;;30.01;45.63
55934;BME280;41839;41.386;2.082;2022-08-03T01:13:56;99612.09;;;29.99;46.21
55934;BME280;41839;41.386;2.082;2022-08-03T01:16:35;99614.91;;;29.94;46.62
55934;BME280;41839;41.386;2.082;2022-08-03T01:31:43;99602.19;;;29.80;45.10
55934;BME280;41839;41.386;2.082;2022-08-03T01:34:14;99596.19;;;29.75;45.87
55934;BME280;41839;41.386;2.082;2022-08-03T01:36:51;99574.66;;;29.59;47.52
55934;BME280;41839;41.386;2.082;2022-08-03T01:39:18;99596.06;;;29.78;47.09
55934;BME280;41839;41.386;2.082;2022-08-03T01:41:55;99592.50;;;29.79;47.47
55934;BME280;41839;41.386;2.082;2022-08-03T01:44:28;99581.72;;;29.84;45.62
55934;BME280;41839;41.386;2.082;2022-08-03T01:46:57;99580.78;;;29.85;45.87
55934;BME280;41839;41.386;2.082;2022-08-03T01:49:24;99586.16;;;29.83;45.54
55934;BME280;41839;41.386;2.082;2022-08-03T01:51:51;99556.66;;;29.69;45.70
55934;BME280;41839;41.386;2.082;2022-08-03T01:55:27;99567.66;;;29.82;45.89
55934;BME280;41839;41.386;2.082;2022-08-03T01:57:58;99571.94;;;29.86;48.47
55934;BME280;41839;41.386;2.082;2022-08-03T02:00:27;99574.56;;;29.86;48.06
55934;BME280;41839;41.386;2.082;2022-08-03T02:02:53;99564.81;;;29.86;48.38
55934;BME280;41839;41.386;2.082;2022-08-03T02:05:20;99570.00;;;29.90;48.88
55934;BME280;41839;41.386;2.082;2022-08-03T02:07:46;99555.94;;;29.87;48.97
55934;BME280;41839;41.386;2.082;2022-08-03T02:12:02;99541.88;;;29.85;48.37
55934;BME280;41839;41.386;2.082;2022-08-03T02:14:28;99561.94;;;29.93;49.00
55934;BME280;41839;41.386;2.082;2022-08-03T02:16:55;99561.00;;;29.94;48.88
55934;BME280;41839;41.386;2.082;2022-08-03T02:19:23;99559.41;;;29.90;47.05
55934;BME280;41839;41.386;2.082;2022-08-03T02:22:09;99556.88;;;29.86;49.20
55934;BME280;41839;41.386;2.082;2022-08-03T02:24:35;99556.78;;;29.88;48.44
55934;BME280;41839;41.386;2.082;2022-08-03T02:27:03;99546.53;;;29.79;48.44
55934;BME280;41839;41.386;2.082;2022-08-03T02:30:39;99509.25;;;29.60;49.18
55934;BME280;41839;41.386;2.082;2022-08-03T02:33:13;99556.00;;;29.86;48.59
55934;BME280;41839;41.386;2.082;2022-08-03T02:35:42;99561.25;;;29.87;48.76
55934;BME280;41839;41.386;2.082;2022-08-03T02:38:09;99544.66;;;29.82;48.85
55934;BME280;41839;41.386;2.082;2022-08-03T02:40:37;99545.53;;;29.83;48.96
55934;BME280;41839;41.386;2.082;2022-08-03T02:43:08;99559.53;;;29.86;48.73
55934;BME280;41839;41.386;2.082;2022-08-03T02:47:44;99561.31;;;29.86;48.80
55934;BME280;41839;41.386;2.082;2022-08-03T02:51:23;99556.06;;;29.84;48.84
55934;BME280;41839;41.386;2.082;2022-08-03T02:53:50;99550.84;;;29.83;48.51
55934;BME280;41839;41.386;2.082;2022-08-03T02:56:17;99544.66;;;29.82;47.92
55934;BME280;41839;41.386;2.082;2022-08-03T02:58:44;99534.41;;;29.73;48.84
55934;BME280;41839;41.386;2.082;2022-08-03T03:01:12;99527.44;;;29.71;48.99
55934;BME280;41839;41.386;2.082;2022-08-03T03:03:39;99538.66;;;29.77;48.86
55934;BME280;41839;41.386;2.082;2022-08-03T03:06:06;99539.59;;;29.76;49.27
55934;BME280;41839;41.386;2.082;2022-08-03T03:08:32;99540.50;;;29.75;47.62
55934;BME280;41839;41.386;2.082;2022-08-03T03:10:59;99521.56;;;29.62;49.22
55934;BME280;41839;41.386;2.082;2022-08-03T03:13:30;99537.06;;;29.73;47.54
55934;BME280;41839;41.386;2.082;2022-08-03T03:15:59;99532.03;;;29.66;49.14
55934;BME280;41839;41.386;2.082;2022-08-03T03:18:28;99532.78;;;29.69;48.78
55934;BME280;41839;41.386;2.082;2022-08-03T03:20:55;99519.84;;;29.60;49.23
55934;BME280;41839;41.386;2.082;2022-08-03T03:23:23;99534.53;;;29.70;48.57
55934;BME280;41839;41.386;2.082;2022-08-03T03:25:51;99502.56;;;29.50;49.40
55934;BME280;41839;41.386;2.082;2022-08-03T03:28:18;99518.03;;;29.62;49.21
55934;BME280;41839;41.386;2.082;2022-08-03T03:30:44;99512.88;;;29.57;48.93
55934;BME280;41839;41.386;2.082;2022-08-03T03:33:09;99525.91;;;29.63;49.25
55934;BME280;41839;41.386;2.082;2022-08-03T03:35:35;99531.09;;;29.67;47.34
55934;BME280;41839;41.386;2.082;2022-08-03T03:38:01;99501.47;;;29.55;47.37
55934;BME280;41839;41.386;2.082;2022-08-03T03:40:27;99521.50;;;29.64;47.85
55934;BME280;41839;41.386;2.082;2022-08-03T03:42:53;99519.84;;;29.61;49.17
55934;BME280;41839;41.386;2.082;2022-08-03T03:45:19;99513.06;;;29.53;49.26
55934;BME280;41839;41.386;2.082;2022-08-03T03:47:46;99518.13;;;29.59;48.19
55934;BME280;41839;41.386;2.082;2022-08-03T03:50:11;99519.19;;;29.55;49.50
55934;BME280;41839;41.386;2.082;2022-08-03T03:52:37;99520.94;;;29.54;49.17
55934;BME280;41839;41.386;2.082;2022-08-03T03:55:03;99515.63;;;29.54;49.32
55934;BME280;41839;41.386;2.082;2022-08-03T03:57:28;99511.97;;;29.58;49.37
55934;BME280;41839;41.386;2.082;2022-08-03T03:59:54;99466.91;;;29.35;49.57
55934;BME280;41839;41.386;2.082;2022-08-03T04:02:19;99486.66;;;29.50;48.67
55934;BME280;41839;41.386;2.082;2022-08-03T04:04:44;99502.97;;;29.64;48.59
55934;BME280;41839;41.386;2.082;2022-08-03T04:07:34;99505.00;;;29.56;47.62
55934;BME280;41839;41.386;2.082;2022-08-03T04:10:24;99485.53;;;29.33;46.07
55934;BME280;41839;41.386;2.082;2022-08-03T04:13:11;99509.09;;;29.41;48.24
55934;BME280;41839;41.386;2.082;2022-08-03T04:15:38;99512.47;;;29.45;46.42
55934;BME280;41839;41.386;2.082;2022-08-03T04:18:07;99496.56;;;29.45;48.20
55934;BME280;41839;41.386;2.082;2022-08-03T04:20:36;99485.41;;;29.36;47.07
55934;BME280;41839;41.386;2.082;2022-08-03T04:23:03;99498.38;;;29.44;45.76
55934;BME280;41839;41.386;2.082;2022-08-03T04:25:31;99497.88;;;29.33;46.22
55934;BME280;41839;41.386;2.082;2022-08-03T04:28:00;99495.19;;;29.34;48.44
55934;BME280;41839;41.386;2.082;2022-08-03T04:30:27;99487.28;;;29.33;47.78
55934;BME280;41839;41.386;2.082;2022-08-03T04:32:55;99513.09;;;29.51;48.90
55934;BME280;41839;41.386;2.082;2022-08-03T04:35:23;99515.81;;;29.50;46.59
55934;BME280;41839;41.386;2.082;2022-08-03T04:41:17;99510.63;;;29.47;46.16
55934;BME280;41839;41.386;2.082;2022-08-03T04:43:43;99515.63;;;29.54;45.87
55934;BME280;41839;41.386;2.082;2022-08-03T04:46:10;99503.38;;;29.52;45.81
55934;BME280;41839;41.386;2.082;2022-08-03T04:48:36;99520.16;;;29.52;47.88
55934;BME280;41839;41.386;2.082;2022-08-03T04:51:02;99502.22;;;29.35;45.67
55934;BME280;41839;41.386;2.082;2022-08-03T04:53:29;99488.78;;;29.16;45.23
55934;BME280;41839;41.386;2.082;2022-08-03T04:56:03;99520.47;;;29.19;43.72
55934;BME280;41839;41.386;2.082;2022-08-03T04:58:28;99514.38;;;29.17;44.84
55934;BME280;41839;41.386;2.082;2022-08-03T05:00:54;99506.59;;;29.13;44.17
55934;BME280;41839;41.386;2.082;2022-08-03T05:03:19;99507.56;;;29.10;43.79
55934;BME280;41839;41.386;2.082;2022-08-03T05:05:45;99509.53;;;29.05;44.08
55934;BME280;41839;41.386;2.082;2022-08-03T05:08:30;99504.84;;;28.87;44.34
55934;BME280;41839;41.386;2.082;2022-08-03T05:10:56;99522.16;;;28.95;44.38
55934;BME280;41839;41.386;2.082;2022-08-03T05:13:22;99522.88;;;29.02;45.98
55934;BME280;41839;41.386;2.082;2022-08-03T05:15:58;99502.88;;;28.92;44.21
55934;BME280;41839;41.386;2.082;2022-08-03T05:18:23;99527.66;;;29.16;46.37
55934;BME280;41839;41.386;2.082;2022-08-03T05:22:35;99502.03;;;29.16;46.92
55934;BME280;41839;41.386;2.082;2022-08-03T05:25:02;99501.06;;;29.19;47.30
55934;BME280;41839;41.386;2.082;2022-08-03T05:27:27;99539.84;;;29.45;45.70
55934;BME280;41839;41.386;2.082;2022-08-03T05:29:53;99515.31;;;29.40;47.56
55934;BME280;41839;41.386;2.082;2022-08-03T05:32:18;99517.25;;;29.35;45.54
55934;BME280;41839;41.386;2.082;2022-08-03T05:34:44;99533.75;;;29.43;45.75
55934;BME280;41839;41.386;2.082;2022-08-03T05:37:10;99521.00;;;29.29;47.53
55934;BME280;41839;41.386;2.082;2022-08-03T05:41:10;99538.22;;;29.41;47.12
55934;BME280;41839;41.386;2.082;2022-08-03T05:43:36;99534.00;;;29.35;46.29
55934;BME280;41839;41.386;2.082;2022-08-03T05:46:01;99542.78;;;29.37;48.04
55934;BME280;41839;41.386;2.082;2022-08-03T05:48:27;99547.22;;;29.37;47.54
55934;BME280;41839;41.386;2.082;2022-08-03T05:50:53;99512.47;;;29.21;45.83
55934;BME280;41839;41.386;2.082;2022-08-03T05:53:18;99541.44;;;29.26;48.57
55934;BME280;41839;41.386;2.082;2022-08-03T05:55:44;99553.59;;;29.31;49.10
55934;BME280;41839;41.386;2.082;2022-08-03T05:58:09;99531.03;;;29.21;49.81
55934;BME280;41839;41.386;2.082;2022-08-03T06:02:06;99549.66;;;29.43;49.57
55934;BME280;41839;41.386;2.082;2022-08-03T06:04:31;99539.31;;;29.35;49.64
55934;BME280;41839;41.386;2.082;2022-08-03T06:09:02;99547.03;;;29.41;48.92
55934;BME280;41839;41.386;2.082;2022-08-03T06:11:27;99554.66;;;29.51;48.50
55934;BME280;41839;41.386;2.082;2022-08-03T06:13:53;99560.13;;;29.46;48.54
55934;BME280;41839;41.386;2.082;2022-08-03T06:16:18;99559.19;;;29.47;48.76
55934;BME280;41839;41.386;2.082;2022-08-03T06:18:44;99552.13;;;29.48;48.41
55934;BME280;41839;41.386;2.082;2022-08-03T06:21:10;99565.31;;;29.49;48.56
55934;BME280;41839;41.386;2.082;2022-08-03T06:23:35;99560.03;;;29.49;48.41
55934;BME280;41839;41.386;2.082;2022-08-03T06:26:01;99566.88;;;29.55;48.22
55934;BME280;41839;41.386;2.082;2022-08-03T06:28:27;99553.88;;;29.49;46.85
55934;BME280;41839;41.386;2.082;2022-08-03T06:30:52;99562.59;;;29.51;48.38
55934;BME280;41839;41.386;2.082;2022-08-03T06:34:47;99560.88;;;29.50;47.97
55934;BME280;41839;41.386;2.082;2022-08-03T06:37:13;99567.63;;;29.58;47.75
55934;BME280;41839;41.386;2.082;2022-08-03T06:39:38;99579.09;;;29.59;48.10
55934;BME280;41839;41.386;2.082;2022-08-03T06:42:04;99568.59;;;29.56;47.76
55934;BME280;41839;41.386;2.082;2022-08-03T06:44:30;99559.84;;;29.54;47.69
55934;BME280;41839;41.386;2.082;2022-08-03T06:46:55;99576.13;;;29.68;47.51
55934;BME280;41839;41.386;2.082;2022-08-03T06:49:21;99579.72;;;29.67;47.35
55934;BME280;41839;41.386;2.082;2022-08-03T06:53:52;99563.00;;;29.65;47.06
55934;BME280;41839;41.386;2.082;2022-08-03T06:56:18;99576.41;;;29.84;46.87
55934;BME280;41839;41.386;2.082;2022-08-03T06:59:45;99584.03;;;29.93;45.05
55934;BME280;41839;41.386;2.082;2022-08-03T07:02:11;99588.00;;;30.05;45.91
55934;BME280;41839;41.386;2.082;2022-08-03T07:04:37;99575.75;;;30.01;46.05
55934;BME280;41839;41.386;2.082;2022-08-03T07:07:02;99569.34;;;30.06;43.58
55934;BME280;41839;41.386;2.082;2022-08-03T07:09:52;99592.16;;;30.34;45.23
55934;BME280;41839;41.386;2.082;2022-08-03T07:12:18;99587.41;;;30.42;45.11
55934;BME280;41839;41.386;2.082;2022-08-03T07:15:20;99581.78;;;30.50;44.83
55934;BME280;41839;41.386;2.082;2022-08-03T07:17:46;99585.44;;;30.69;43.94
55934;BME280;41839;41.386;2.082;2022-08-03T07:20:11;99580.69;;;30.77;44.01
55934;BME280;41839;41.386;2.082;2022-08-03T07:22:39;99577.50;;;30.90;43.58
55934;BME280;41839;41.386;2.082;2022-08-03T07:25:06;99586.00;;;31.18;43.27
55934;BME280;41839;41.386;2.082;2022-08-03T07:27:31;99592.19;;;31.39;42.78
55934;BME280;41839;41.386;2.082;2022-08-03T07:29:58;99590.13;;;31.46;42.57
55934;BME280;41839;41.386;2.082;2022-08-03T07:32:24;99524.91;;;30.98;42.78
55934;BME280;41839;41.386;2.082;2022-08-03T07:34:50;99600.41;;;31.35;42.58
55934;BME280;41839;41.386;2.082;2022-08-03T07:37:15;99597.31;;;31.44;42.54
55934;BME280;41839;41.386;2.082;2022-08-03T07:39:41;99598.78;;;31.51;42.02
55934;BME280;41839;41.386;2.082;2022-08-03T07:42:06;99585.81;;;31.43;41.75
55934;BME280;41839;41.386;2.082;2022-08-03T07:44:32;99602.81;;;31.60;41.82
55934;BME280;41839;41.386;2.082;2022-08-03T07:46:58;99588.47;;;31.43;41.31
55934;BME280;41839;41.386;2.082;2022-08-03T07:49:23;99606.84;;;31.68;41.23
55934;BME280;41839;41.386;2.082;2022-08-03T07:51:48;99617.16;;;31.56;40.81
55934;BME280;41839;41.386;2.082;2022-08-03T07:55:30;99616.75;;;31.65;41.03
55934;BME280;41839;41.386;2.082;2022-08-03T07:58:08;99588.31;;;31.46;40.94
55934;BME280;41839;41.386;2.082;2022-08-03T08:00:35;99610.84;;;31.58;41.15
55934;BME280;41839;41.386;2.082;2022-08-03T08:03:01;99611.78;;;31.57;41.18
55934;BME280;41839;41.386;2.082;2022-08-03T08:06:51;99519.50;;;31.20;40.93
55934;BME280;41839;41.386;2.082;2022-08-03T08:10:14;99609.47;;;31.89;40.20
55934;BME280;41839;41.386;2.082;2022-08-03T08:14:33;99608.69;;;31.87;39.47
55934;BME280;41839;41.386;2.082;2022-08-03T08:16:59;99604.25;;;31.67;39.03
55934;BME280;41839;41.386;2.082;2022-08-03T08:19:24;99609.28;;;31.73;39.02
55934;BME280;41839;41.386;2.082;2022-08-03T08:21:50;99602.13;;;31.75;38.79
55934;BME280;41839;41.386;2.082;2022-08-03T08:24:15;99601.84;;;31.81;38.82
55934;BME280;41839;41.386;2.082;2022-08-03T08:26:40;99606.00;;;31.87;38.74
55934;BME280;41839;41.386;2.082;2022-08-03T08:29:06;99606.06;;;31.85;37.97
55934;BME280;41839;41.386;2.082;2022-08-03T08:31:31;99597.97;;;32.07;37.56
55934;BME280;41839;41.386;2.082;2022-08-03T08:33:57;99602.22;;;32.30;38.89
55934;BME280;41839;41.386;2.082;2022-08-03T08:36:23;99612.66;;;32.16;38.44
55934;BME280;41839;41.386;2.082;2022-08-03T08:39:46;99611.13;;;32.10;38.82
55934;BME280;41839;41.386;2.082;2022-08-03T08:42:11;99606.63;;;32.12;37.67
55934;BME280;41839;41.386;2.082;2022-08-03T08:44:37;99601.69;;;32.41;38.53
55934;BME280;41839;41.386;2.082;2022-08-03T08:47:02;99608.97;;;32.37;38.70
55934;BME280;41839;41.386;2.082;2022-08-03T08:49:29;99604.88;;;32.30;39.18
55934;BME280;41839;41.386;2.082;2022-08-03T08:51:57;99593.78;;;32.21;39.66
55934;BME280;41839;41.386;2.082;2022-08-03T08:54:23;99615.06;;;32.21;42.00
55934;BME280;41839;41.386;2.082;2022-08-03T08:56:50;99604.63;;;32.35;40.75
55934;BME280;41839;41.386;2.082;2022-08-03T08:59:18;99611.78;;;32.34;41.36
55934;BME280;41839;41.386;2.082;2022-08-03T09:01:44;99616.31;;;32.13;41.90
55934;BME280;41839;41.386;2.082;2022-08-03T09:05:21;99620.63;;;32.16;42.47
55934;BME280;41839;41.386;2.082;2022-08-03T09:07:48;99625.81;;;32.19;45.19
55934;BME280;41839;41.386;2.082;2022-08-03T09:10:16;99608.47;;;32.10;43.38
55934;BME280;41839;41.386;2.082;2022-08-03T09:12:48;99623.44;;;32.13;44.65
55934;BME280;41839;41.386;2.082;2022-08-03T09:15:23;99629.09;;;32.05;44.80
55934;BME280;41839;41.386;2.082;2022-08-03T09:21:27;99624.97;;;32.19;45.22
55934;BME280;41839;41.386;2.082;2022-08-03T09:23:57;99632.94;;;32.19;45.84
55934;BME280;41839;41.386;2.082;2022-08-03T09:28:17;99629.91;;;32.07;46.31
55934;BME280;41839;41.386;2.082;2022-08-03T09:32:01;99633.38;;;32.09;46.78
55934;BME280;41839;41.386;2.082;2022-08-03T09:34:28;99635.66;;;31.98;47.03
55934;BME280;41839;41.386;2.082;2022-08-03T09:39:07;99630.84;;;32.06;48.53
55934;BME280;41839;41.386;2.082;2022-08-03T09:41:36;99624.59;;;32.07;47.29
55934;BME280;41839;41.386;2.082;2022-08-03T09:44:01;99634.28;;;32.08;48.68
55934;BME280;41839;41.386;2.082;2022-08-03T09:46:27;99604.16;;;31.89;48.05
55934;BME280;41839;41.386;2.082;2022-08-03T09:49:08;99636.03;;;32.09;47.68
55934;BME280;41839;41.386;2.082;2022-08-03T09:51:34;99620.22;;;32.06;47.92
55934;BME280;41839;41.386;2.082;2022-08-03T09:54:00;99612.19;;;31.87;48.51
55934;BME280;41839;41.386;2.082;2022-08-03T09:56:45;99633.84;;;31.99;48.48
55934;BME280;41839;41.386;2.082;2022-08-03T09:59:12;99642.50;;;32.04;48.54
55934;BME280;41839;41.386;2.082;2022-08-03T10:01:38;99624.66;;;32.06;49.13
55934;BME280;41839;41.386;2.082;2022-08-03T10:06:17;99614.81;;;32.08;48.44
55934;BME280;41839;41.386;2.082;2022-08-03T10:08:48;99641.34;;;32.28;48.29
55934;BME280;41839;41.386;2.082;2022-08-03T10:11:29;99619.25;;;32.26;48.42
55934;BME280;41839;41.386;2.082;2022-08-03T10:13:56;99625.22;;;32.31;49.71
55934;BME280;41839;41.386;2.082;2022-08-03T10:16:22;99620.84;;;32.30;48.38
55934;BME280;41839;41.386;2.082;2022-08-03T10:18:48;99633.88;;;32.36;48.37
55934;BME280;41839;41.386;2.082;2022-08-03T10:21:16;99630.31;;;32.36;48.26
55934;BME280;41839;41.386;2.082;2022-08-03T10:25:52;99626.38;;;32.45;47.99
55934;BME280;41839;41.386;2.082;2022-08-03T10:28:19;99596.59;;;32.36;47.93
55934;BME280;41839;41.386;2.082;2022-08-03T10:30:51;99622.56;;;32.50;47.96
55934;BME280;41839;41.386;2.082;2022-08-03T10:35:23;99623.69;;;32.64;47.89
55934;BME280;41839;41.386;2.082;2022-08-03T10:38:17;99629.97;;;32.63;47.27
55934;BME280;41839;41.386;2.082;2022-08-03T10:40:43;99600.25;;;32.53;47.42
55934;BME280;41839;41.386;2.082;2022-08-03T10:43:15;99620.09;;;32.65;47.37
55934;BME280;41839;41.386;2.082;2022-08-03T10:46:47;99622.63;;;32.68;46.83
55934;BME280;41839;41.386;2.082;2022-08-03T10:49:17;99619.78;;;32.71;47.18
55934;BME280;41839;41.386;2.082;2022-08-03T10:51:44;99609.59;;;32.62;46.58
55934;BME280;41839;41.386;2.082;2022-08-03T10:57:01;99588.84;;;32.68;46.61
55934;BME280;41839;41.386;2.082;2022-08-03T11:02:15;99594.16;;;32.68;46.22
55934;BME280;41839;41.386;2.082;2022-08-03T11:04:41;99602.22;;;32.67;44.94
55934;BME280;41839;41.386;2.082;2022-08-03T11:07:33;99619.63;;;32.91;44.94
55934;BME280;41839;41.386;2.082;2022-08-03T11:09:58;99598.09;;;32.78;44.86
55934;BME280;41839;41.386;2.082;2022-08-03T11:12:30;99614.72;;;32.83;44.96
55934;BME280;41839;41.386;2.082;2022-08-03T11:16:19;99591.56;;;32.67;45.56
55934;BME280;41839;41.386;2.082;2022-08-03T11:19:15;99608.59;;;32.81;45.34
55934;BME280;41839;41.386;2.082;2022-08-03T11:28:27;99610.53;;;33.14;44.43
55934;BME280;41839;41.386;2.082;2022-08-03T11:30:53;99596.28;;;32.96;44.44
55934;BME280;41839;41.386;2.082;2022-08-03T11:33:28;99602.56;;;32.95;44.42
55934;BME280;41839;41.386;2.082;2022-08-03T11:35:59;99607.22;;;33.09;44.34
55934;BME280;41839;41.386;2.082;2022-08-03T11:38:25;99603.97;;;33.20;44.02
55934;BME280;41839;41.386;2.082;2022-08-03T11:40:52;99604.28;;;33.31;43.71
55934;BME280;41839;41.386;2.082;2022-08-03T11:48:43;99601.31;;;33.37;43.67
55934;BME280;41839;41.386;2.082;2022-08-03T11:51:20;99576.78;;;33.13;43.87
55934;BME280;41839;41.386;2.082;2022-08-03T11:54:00;99574.75;;;33.18;43.71
55934;BME280;41839;41.386;2.082;2022-08-03T11:56:27;99609.47;;;33.34;43.68
55934;BME280;41839;41.386;2.082;2022-08-03T12:08:10;99594.41;;;33.50;44.15
55934;BME280;41839;41.386;2.082;2022-08-03T12:10:37;99587.97;;;33.55;44.18
55934;BME280;41839;41.386;2.082;2022-08-03T12:13:04;99596.44;;;33.45;44.25
55934;BME280;41839;41.386;2.082;2022-08-03T12:17:12;99584.13;;;33.43;44.27
55934;BME280;41839;41.386;2.082;2022-08-03T12:19:41;99598.81;;;33.51;44.14
55934;BME280;41839;41.386;2.082;2022-08-03T12:22:07;99597.47;;;33.43;44.21
55934;BME280;41839;41.386;2.082;2022-08-03T12:27:22;99550.72;;;33.02;44.32
55934;BME280;41839;41.386;2.082;2022-08-03T12:29:53;99582.31;;;33.43;42.14
55934;BME280;41839;41.386;2.082;2022-08-03T12:32:46;99566.69;;;33.53;42.81
55934;BME280;41839;41.386;2.082;2022-08-03T12:35:22;99587.38;;;33.65;42.74
55934;BME280;41839;41.386;2.082;2022-08-03T12:37:50;99587.47;;;33.46;42.83
55934;BME280;41839;41.386;2.082;2022-08-03T12:40:24;99596.72;;;33.23;44.01
55934;BME280;41839;41.386;2.082;2022-08-03T12:42:51;99566.50;;;32.88;44.54
55934;BME280;41839;41.386;2.082;2022-08-03T12:45:27;99593.03;;;33.09;44.38
55934;BME280;41839;41.386;2.082;2022-08-03T12:47:58;99583.81;;;32.97;46.24
55934;BME280;41839;41.386;2.082;2022-08-03T12:50:24;99595.00;;;33.05;45.31
55934;BME280;41839;41.386;2.082;2022-08-03T12:52:50;99596.63;;;33.25;44.95
55934;BME280;41839;41.386;2.082;2022-08-03T12:55:20;99568.88;;;33.12;44.83
55934;BME280;41839;41.386;2.082;2022-08-03T13:00:34;99597.63;;;33.40;44.92
55934;BME280;41839;41.386;2.082;2022-08-03T13:03:05;99567.53;;;33.20;45.19
55934;BME280;41839;41.386;2.082;2022-08-03T13:05:42;99591.91;;;33.30;44.27
55934;BME280;41839;41.386;2.082;2022-08-03T13:08:21;99603.31;;;33.49;44.27
55934;BME280;41839;41.386;2.082;2022-08-03T13:11:28;99597.47;;;33.25;44.83
55934;BME280;41839;41.386;2.082;2022-08-03T13:13:53;99592.25;;;33.06;44.89
55934;BME280;41839;41.386;2.082;2022-08-03T13:16:23;99583.38;;;33.06;44.26
55934;BME280;41839;41.386;2.082;2022-08-03T13:19:39;99569.28;;;33.04;43.65
55934;BME280;41839;41.386;2.082;2022-08-03T13:22:22;99467.75;;;32.22;44.06
55934;BME280;41839;41.386;2.082;2022-08-03T13:24:52;99594.25;;;32.84;44.66
55934;BME280;41839;41.386;2.082;2022-08-03T13:27:20;99595.09;;;32.67;44.92
55934;BME280;41839;41.386;2.082;2022-08-03T13:29:45;99586.94;;;32.53;45.04
55934;BME280;41839;41.386;2.082;2022-08-03T13:32:11;99594.28;;;32.48;44.93
55934;BME280;41839;41.386;2.082;2022-08-03T13:34:36;99586.09;;;32.33;43.79
55934;BME280;41839;41.386;2.082;2022-08-03T13:37:03;99591.47;;;32.32;45.21
55934;BME280;41839;41.386;2.082;2022-08-03T13:41:27;99588.97;;;32.29;44.86
55934;BME280;41839;41.386;2.082;2022-08-03T13:43:53;99591.47;;;32.32;44.96
55934;BME280;41839;41.386;2.082;2022-08-03T13:46:20;99568.19;;;32.18;45.01
55934;BME280;41839;41.386;2.082;2022-08-03T13:48:45;99584.53;;;32.10;44.92
55934;BME280;41839;41.386;2.082;2022-08-03T13:51:11;99584.16;;;32.18;44.59
55934;BME280;41839;41.386;2.082;2022-08-03T13:53:37;99567.75;;;32.08;44.48
55934;BME280;41839;41.386;2.082;2022-08-03T13:56:02;99491.41;;;31.54;44.45
55934;BME280;41839;41.386;2.082;2022-08-03T13:58:28;99575.88;;;32.05;44.98
55934;BME280;41839;41.386;2.082;2022-08-03T14:00:53;99580.44;;;32.03;44.75
55934;BME280;41839;41.386;2.082;2022-08-03T14:03:19;99567.91;;;32.05;44.54
55934;BME280;41839;41.386;2.082;2022-08-03T14:05:45;99583.81;;;32.07;43.94
55934;BME280;41839;41.386;2.082;2022-08-03T14:08:11;99579.06;;;32.13;44.83
55934;BME280;41839;41.386;2.082;2022-08-03T14:15:15;99483.91;;;31.62;43.97
55934;BME280;41839;41.386;2.082;2022-08-03T14:17:41;99577.81;;;32.21;44.88
55934;BME280;41839;41.386;2.082;2022-08-03T14:20:07;99570.72;;;32.02;44.36
55934;BME280;41839;41.386;2.082;2022-08-03T14:22:33;99554.66;;;31.85;42.79
55934;BME280;41839;41.386;2.082;2022-08-03T14:26:08;99571.00;;;32.15;43.82
55934;BME280;41839;41.386;2.082;2022-08-03T14:29:19;99573.59;;;32.17;43.20
55934;BME280;41839;41.386;2.082;2022-08-03T14:32:01;99571.78;;;32.17;42.67
55934;BME280;41839;41.386;2.082;2022-08-03T14:34:26;99567.47;;;32.33;42.61
55934;BME280;41839;41.386;2.082;2022-08-03T14:36:52;99562.91;;;32.35;42.50
55934;BME280;41839;41.386;2.082;2022-08-03T14:39:17;99578.09;;;32.14;41.97
55934;BME280;41839;41.386;2.082;2022-08-03T14:41:43;99578.22;;;31.94;42.62
55934;BME280;41839;41.386;2.082;2022-08-03T14:44:08;99529.50;;;31.73;42.55
55934;BME280;41839;41.386;2.082;2022-08-03T14:46:34;99563.50;;;31.85;42.67
55934;BME280;41839;41.386;2.082;2022-08-03T14:48:59;99557.06;;;31.91;42.84
55934;BME280;41839;41.386;2.082;2022-08-03T14:51:25;99571.16;;;32.12;43.27
55934;BME280;41839;41.386;2.082;2022-08-03T14:53:50;99493.97;;;31.74;42.91
55934;BME280;41839;41.386;2.082;2022-08-03T14:56:17;99551.94;;;32.24;41.57
55934;BME280;41839;41.386;2.082;2022-08-03T14:58:42;99565.59;;;32.17;42.66
55934;BME280;41839;41.386;2.082;2022-08-03T15:01:08;99556.31;;;31.87;43.58